Time;durP1;ratioP1;P1;durP2;ratioP2;P2;SDS_P1;SDS_P2;PMS_P1;PMS_P2;Temp;Humidity;BMP_temperature;BMP_pressure;BME280_temperature;BME280_humidity;BME280_pressure;Samples;Min_cycle;Max_cycle;Signal;HPM_P1;HPM_P2
2023/06/30 00:01:39;;;;;;;9.30;3.90;;;;;;;-128.00;-1.00;-1.00;106763;1254;1013054;-61
2023/06/30 00:04:30;;;;;;;9.40;4.00;;;;;;;-128.00;-1.00;-1.00;106508;1254;1010153;-61
2023/06/30 00:07:21;;;;;;;8.30;3.80;;;;;;;-128.00;-1.00;-1.00;106593;1254;1010310;-63
2023/06/30 00:10:09;;;;;;;10.90;4.40;;;;;;;-128.00;-1.00;-1.00;106507;1254;1012831;-62
2023/06/30 00:12:55;;;;;;;9.40;3.70;;;;;;;-128.00;-1.00;-1.00;106753;1254;1012550;-62
2023/06/30 00:15:41;;;;;;;8.60;3.90;;;;;;;-128.00;-1.00;-1.00;106622;1254;1012596;-60
2023/06/30 00:18:29;;;;;;;8.90;3.50;;;;;;;-128.00;-1.00;-1.00;106757;1254;1010258;-62
2023/06/30 00:21:15;;;;;;;7.60;3.40;;;;;;;-128.00;-1.00;-1.00;106602;1254;1011352;-61
2023/06/30 00:24:04;;;;;;;9.70;3.80;;;;;;;-128.00;-1.00;-1.00;106353;1259;1012717;-61
2023/06/30 00:26:50;;;;;;;8.50;4.00;;;;;;;-128.00;-1.00;-1.00;106294;1259;1011951;-62
2023/06/30 00:29:36;;;;;;;9.50;3.60;;;;;;;-128.00;-1.00;-1.00;106348;1259;1012955;-62
2023/06/30 00:32:23;;;;;;;10.30;4.10;;;;;;;-128.00;-1.00;-1.00;106249;1259;1010204;-62
2023/06/30 00:35:10;;;;;;;9.10;4.00;;;;;;;-128.00;-1.00;-1.00;106332;1259;1010157;-63
2023/06/30 00:37:56;;;;;;;10.50;4.20;;;;;;;-128.00;-1.00;-1.00;106351;1259;1011870;-62
2023/06/30 00:40:42;;;;;;;10.40;4.00;;;;;;;-128.00;-1.00;-1.00;106355;1263;1012361;-62
2023/06/30 00:43:28;;;;;;;8.40;3.90;;;;;;;-128.00;-1.00;-1.00;106310;1259;1012039;-61
2023/06/30 00:46:17;;;;;;;9.10;4.00;;;;;;;-128.00;-1.00;-1.00;106257;1258;1010465;-61
2023/06/30 00:49:04;;;;;;;9.40;3.70;;;;;;;-128.00;-1.00;-1.00;106180;1262;1011669;-61
2023/06/30 00:51:50;;;;;;;8.10;3.80;;;;;;;-128.00;-1.00;-1.00;106115;1264;1013528;-60
2023/06/30 00:54:37;;;;;;;8.60;3.40;;;;;;;-128.00;-1.00;-1.00;106267;1257;1012369;-61
2023/06/30 00:57:23;;;;;;;8.50;3.80;;;;;;;-128.00;-1.00;-1.00;106329;1258;1012884;-61
2023/06/30 01:00:12;;;;;;;8.90;3.50;;;;;;;-128.00;-1.00;-1.00;106348;1257;1009344;-61
2023/06/30 01:03:33;;;;;;;8.40;3.60;;;;;;;-128.00;-1.00;-1.00;106366;1257;1011164;-61
2023/06/30 01:06:37;;;;;;;8.20;3.80;;;;;;;-128.00;-1.00;-1.00;106369;1257;1012928;-59
2023/06/30 01:09:28;;;;;;;8.10;3.50;;;;;;;-128.00;-1.00;-1.00;106383;1256;1012165;-59
2023/06/30 01:12:15;;;;;;;9.50;3.30;;;;;;;-128.00;-1.00;-1.00;106345;1258;1012385;-60
2023/06/30 01:15:03;;;;;;;7.30;3.00;;;;;;;-128.00;-1.00;-1.00;106336;1257;1010871;-59
2023/06/30 01:17:56;;;;;;;7.80;3.10;;;;;;;-128.00;-1.00;-1.00;106397;1258;1010928;-58
2023/06/30 01:20:42;;;;;;;7.90;3.40;;;;;;;-128.00;-1.00;-1.00;106654;1255;1013240;-60
2023/06/30 01:24:08;;;;;;;8.50;3.50;;;;;;;-128.00;-1.00;-1.00;106777;1254;1011720;-61
2023/06/30 01:26:54;;;;;;;8.40;3.40;;;;;;;-128.00;-1.00;-1.00;106545;1254;1012916;-58
2023/06/30 01:29:43;;;;;;;10.30;3.50;;;;;;;-128.00;-1.00;-1.00;106543;1256;1010140;-59
2023/06/30 01:32:30;;;;;;;10.00;3.50;;;;;;;-128.00;-1.00;-1.00;106592;1254;1010716;-62
2023/06/30 01:35:17;;;;;;;7.80;3.50;;;;;;;-128.00;-1.00;-1.00;106495;1254;1012753;-60
2023/06/30 01:38:03;;;;;;;8.70;3.30;;;;;;;-128.00;-1.00;-1.00;106575;1254;1013038;-61
2023/06/30 01:40:50;;;;;;;7.50;3.50;;;;;;;-128.00;-1.00;-1.00;106615;1254;1012895;-62
2023/06/30 01:43:36;;;;;;;8.00;3.50;;;;;;;-128.00;-1.00;-1.00;106748;1254;1010097;-61
2023/06/30 01:46:23;;;;;;;7.70;3.70;;;;;;;-128.00;-1.00;-1.00;106761;1254;1011189;-61
2023/06/30 01:49:11;;;;;;;8.30;3.60;;;;;;;-128.00;-1.00;-1.00;106506;1254;1013030;-63
2023/06/30 01:51:58;;;;;;;7.90;3.90;;;;;;;-128.00;-1.00;-1.00;106525;1254;1011671;-60
2023/06/30 01:54:44;;;;;;;7.60;3.40;;;;;;;-128.00;-1.00;-1.00;106446;1259;1013206;-61
2023/06/30 01:57:31;;;;;;;7.90;3.40;;;;;;;-128.00;-1.00;-1.00;106741;1254;1009798;-60
2023/06/30 02:00:18;;;;;;;7.60;3.80;;;;;;;-128.00;-1.00;-1.00;106636;1254;1010394;-62
2023/06/30 02:03:06;;;;;;;9.50;3.80;;;;;;;-128.00;-1.00;-1.00;106615;1258;1012102;-63
2023/06/30 02:05:54;;;;;;;8.40;3.80;;;;;;;-128.00;-1.00;-1.00;106602;1254;1012253;-59
2023/06/30 02:08:40;;;;;;;11.60;3.80;;;;;;;-128.00;-1.00;-1.00;106745;1254;1012707;-62
2023/06/30 02:11:27;;;;;;;9.20;3.70;;;;;;;-128.00;-1.00;-1.00;106486;1257;1010048;-61
2023/06/30 02:14:13;;;;;;;7.90;3.80;;;;;;;-128.00;-1.00;-1.00;106610;1254;1011001;-61
2023/06/30 02:17:00;;;;;;;8.50;3.20;;;;;;;-128.00;-1.00;-1.00;106595;1254;1012840;-60
2023/06/30 02:19:46;;;;;;;7.80;3.50;;;;;;;-128.00;-1.00;-1.00;106740;1259;1012786;-59
2023/06/30 02:22:34;;;;;;;8.50;3.70;;;;;;;-128.00;-1.00;-1.00;106703;1257;1012556;-59
2023/06/30 02:25:20;;;;;;;8.60;3.50;;;;;;;-128.00;-1.00;-1.00;106730;1254;1009755;-59
2023/06/30 02:28:07;;;;;;;9.60;3.80;;;;;;;-128.00;-1.00;-1.00;106642;1254;1011195;-61
2023/06/30 02:30:55;;;;;;;7.20;3.20;;;;;;;-128.00;-1.00;-1.00;106466;1254;1012687;-62
2023/06/30 02:33:41;;;;;;;8.70;4.10;;;;;;;-128.00;-1.00;-1.00;106566;1255;1012400;-60
2023/06/30 02:36:28;;;;;;;9.70;3.60;;;;;;;-128.00;-1.00;-1.00;106629;1254;1013619;-60
2023/06/30 02:39:15;;;;;;;8.70;3.80;;;;;;;-128.00;-1.00;-1.00;106515;1254;1009556;-62
2023/06/30 02:42:01;;;;;;;7.50;3.60;;;;;;;-128.00;-1.00;-1.00;106613;1254;1011733;-62
2023/06/30 02:44:47;;;;;;;9.40;4.10;;;;;;;-128.00;-1.00;-1.00;106549;1260;1012286;-59
2023/06/30 02:47:34;;;;;;;8.00;3.80;;;;;;;-128.00;-1.00;-1.00;106507;1261;1012208;-59
2023/06/30 02:50:30;;;;;;;10.20;4.00;;;;;;;-128.00;-1.00;-1.00;106570;1257;1012839;-61
2023/06/30 02:53:16;;;;;;;9.20;3.80;;;;;;;-128.00;-1.00;-1.00;106638;1254;1009882;-60
2023/06/30 02:56:03;;;;;;;8.30;3.90;;;;;;;-128.00;-1.00;-1.00;106645;1254;1010859;-61
2023/06/30 02:58:53;;;;;;;9.90;4.20;;;;;;;-128.00;-1.00;-1.00;106606;1254;1012342;-59
2023/06/30 03:01:41;;;;;;;9.00;4.10;;;;;;;-128.00;-1.00;-1.00;106619;1258;1012055;-60
2023/06/30 03:04:27;;;;;;;8.60;3.70;;;;;;;-128.00;-1.00;-1.00;106640;1254;1012852;-60
2023/06/30 03:07:14;;;;;;;8.40;3.70;;;;;;;-128.00;-1.00;-1.00;106580;1254;1009782;-63
2023/06/30 03:10:01;;;;;;;8.90;3.70;;;;;;;-128.00;-1.00;-1.00;106609;1254;1011330;-61
2023/06/30 03:12:48;;;;;;;8.70;3.50;;;;;;;-128.00;-1.00;-1.00;106489;1254;1012717;-61
2023/06/30 03:15:35;;;;;;;7.70;3.40;;;;;;;-128.00;-1.00;-1.00;106524;1255;1012172;-59
2023/06/30 03:18:22;;;;;;;8.80;3.50;;;;;;;-128.00;-1.00;-1.00;106439;1254;1013722;-60
2023/06/30 03:21:09;;;;;;;8.50;3.50;;;;;;;-128.00;-1.00;-1.00;106436;1254;1010321;-60
2023/06/30 03:23:56;;;;;;;8.80;3.50;;;;;;;-128.00;-1.00;-1.00;106449;1254;1011076;-58
2023/06/30 03:26:42;;;;;;;8.40;3.20;;;;;;;-128.00;-1.00;-1.00;106536;1254;1012258;-59
2023/06/30 03:29:36;;;;;;;9.90;3.30;;;;;;;-128.00;-1.00;-1.00;106441;1259;1012299;-62
2023/06/30 03:32:22;;;;;;;8.30;3.10;;;;;;;-128.00;-1.00;-1.00;106594;1257;1012894;-62
2023/06/30 03:35:08;;;;;;;9.60;3.30;;;;;;;-128.00;-1.00;-1.00;106536;1260;1009458;-59
2023/06/30 03:37:55;;;;;;;7.10;3.20;;;;;;;-128.00;-1.00;-1.00;106621;1254;1011112;-60
2023/06/30 03:40:41;;;;;;;7.50;3.20;;;;;;;-128.00;-1.00;-1.00;106474;1260;1013555;-61
2023/06/30 03:43:28;;;;;;;8.10;3.30;;;;;;;-128.00;-1.00;-1.00;106653;1259;1012305;-60
2023/06/30 03:46:15;;;;;;;7.60;3.10;;;;;;;-128.00;-1.00;-1.00;106679;1254;1012400;-63
2023/06/30 03:49:04;;;;;;;7.40;3.00;;;;;;;-128.00;-1.00;-1.00;106609;1254;1010080;-63
2023/06/30 03:51:51;;;;;;;8.00;3.30;;;;;;;-128.00;-1.00;-1.00;106613;1254;1010935;-64
2023/06/30 03:54:37;;;;;;;9.40;3.00;;;;;;;-128.00;-1.00;-1.00;106557;1254;1013559;-63
2023/06/30 03:57:23;;;;;;;7.00;2.90;;;;;;;-128.00;-1.00;-1.00;106704;1254;1011981;-63
2023/06/30 04:00:12;;;;;;;8.60;3.10;;;;;;;-128.00;-1.00;-1.00;106558;1253;1013469;-65
2023/06/30 04:02:58;;;;;;;9.40;3.90;;;;;;;-128.00;-1.00;-1.00;106599;1253;1010063;-67
2023/06/30 04:05:45;;;;;;;8.40;3.10;;;;;;;-128.00;-1.00;-1.00;106595;1253;1010308;-64
2023/06/30 04:08:31;;;;;;;7.50;3.30;;;;;;;-128.00;-1.00;-1.00;106563;1254;1011775;-63
2023/06/30 04:11:18;;;;;;;8.20;3.30;;;;;;;-128.00;-1.00;-1.00;106566;1253;1012759;-65
2023/06/30 04:14:04;;;;;;;7.40;3.10;;;;;;;-128.00;-1.00;-1.00;106710;1253;1012463;-67
2023/06/30 04:16:50;;;;;;;7.80;3.00;;;;;;;-128.00;-1.00;-1.00;106795;1253;1010021;-64
2023/06/30 04:19:37;;;;;;;6.90;3.20;;;;;;;-128.00;-1.00;-1.00;106531;1253;1010464;-63
2023/06/30 04:22:23;;;;;;;9.50;3.60;;;;;;;-128.00;-1.00;-1.00;106798;1254;1013830;-62
2023/06/30 04:25:10;;;;;;;8.20;3.40;;;;;;;-128.00;-1.00;-1.00;106835;1256;1012181;-63
2023/06/30 04:27:56;;;;;;;8.10;3.40;;;;;;;-128.00;-1.00;-1.00;106549;1255;1012812;-62
2023/06/30 04:30:43;;;;;;;8.80;3.90;;;;;;;-128.00;-1.00;-1.00;106650;1253;1009582;-67
2023/06/30 04:33:30;;;;;;;8.20;3.60;;;;;;;-128.00;-1.00;-1.00;106554;1254;1011583;-61
2023/06/30 04:36:17;;;;;;;9.40;2.90;;;;;;;-128.00;-1.00;-1.00;106667;1254;1012908;-64
2023/06/30 04:39:03;;;;;;;7.40;3.10;;;;;;;-128.00;-1.00;-1.00;106451;1257;1012495;-66
2023/06/30 04:41:50;;;;;;;8.80;3.40;;;;;;;-128.00;-1.00;-1.00;106580;1253;1012398;-65
2023/06/30 04:44:36;;;;;;;7.20;3.20;;;;;;;-128.00;-1.00;-1.00;106638;1254;1010248;-65
2023/06/30 04:47:23;;;;;;;8.10;3.50;;;;;;;-128.00;-1.00;-1.00;106669;1253;1011263;-64
2023/06/30 04:50:10;;;;;;;8.30;3.50;;;;;;;-128.00;-1.00;-1.00;106590;1254;1012480;-62
2023/06/30 04:52:56;;;;;;;7.60;3.50;;;;;;;-128.00;-1.00;-1.00;106639;1254;1011579;-65
2023/06/30 04:55:42;;;;;;;8.70;3.60;;;;;;;-128.00;-1.00;-1.00;106789;1253;1012424;-62
2023/06/30 04:58:29;;;;;;;7.40;3.50;;;;;;;-128.00;-1.00;-1.00;106806;1253;1009372;-62
2023/06/30 05:01:15;;;;;;;9.20;3.40;;;;;;;-128.00;-1.00;-1.00;106658;1253;1010373;-64
2023/06/30 05:04:01;;;;;;;8.50;3.40;;;;;;;-128.00;-1.00;-1.00;106659;1254;1012971;-62
2023/06/30 05:06:48;;;;;;;7.40;3.40;;;;;;;-128.00;-1.00;-1.00;106631;1254;1013458;-64
2023/06/30 05:09:35;;;;;;;7.60;3.60;;;;;;;-128.00;-1.00;-1.00;106752;1253;1012624;-66
2023/06/30 05:12:21;;;;;;;7.70;3.40;;;;;;;-128.00;-1.00;-1.00;106585;1258;1009745;-63
2023/06/30 05:15:08;;;;;;;7.90;3.30;;;;;;;-128.00;-1.00;-1.00;106835;1253;1010956;-65
2023/06/30 05:17:54;;;;;;;7.70;3.30;;;;;;;-128.00;-1.00;-1.00;106642;1253;1012854;-62
2023/06/30 05:20:41;;;;;;;8.30;3.30;;;;;;;-128.00;-1.00;-1.00;106589;1254;1012845;-66
2023/06/30 05:23:28;;;;;;;9.60;4.10;;;;;;;-128.00;-1.00;-1.00;106816;1254;1013236;-65
2023/06/30 05:26:15;;;;;;;9.20;3.60;;;;;;;-128.00;-1.00;-1.00;106623;1253;1009934;-66
2023/06/30 05:29:01;;;;;;;9.50;3.40;;;;;;;-128.00;-1.00;-1.00;106710;1253;1011187;-68
2023/06/30 05:31:51;;;;;;;9.00;3.50;;;;;;;-128.00;-1.00;-1.00;106800;1254;1012727;-69
2023/06/30 05:34:39;;;;;;;7.90;3.50;;;;;;;-128.00;-1.00;-1.00;106671;1259;1013056;-65
2023/06/30 05:37:25;;;;;;;8.40;3.70;;;;;;;-128.00;-1.00;-1.00;106561;1253;1012636;-64
2023/06/30 05:40:12;;;;;;;8.10;3.70;;;;;;;-128.00;-1.00;-1.00;106786;1253;1009341;-68
2023/06/30 05:42:58;;;;;;;7.40;3.60;;;;;;;-128.00;-1.00;-1.00;106704;1253;1012260;-65
2023/06/30 05:45:44;;;;;;;8.60;3.60;;;;;;;-128.00;-1.00;-1.00;106804;1253;1012956;-65
2023/06/30 05:48:31;;;;;;;7.90;3.80;;;;;;;-128.00;-1.00;-1.00;106792;1254;1011559;-68
2023/06/30 05:51:18;;;;;;;10.50;3.60;;;;;;;-128.00;-1.00;-1.00;106803;1254;1012819;-65
2023/06/30 05:54:04;;;;;;;9.70;4.00;;;;;;;-128.00;-1.00;-1.00;106847;1253;1010490;-68
2023/06/30 05:56:51;;;;;;;7.80;3.80;;;;;;;-128.00;-1.00;-1.00;106645;1254;1011595;-68
2023/06/30 05:59:37;;;;;;;8.10;4.00;;;;;;;-128.00;-1.00;-1.00;106709;1257;1012712;-66
2023/06/30 06:02:23;;;;;;;8.00;4.20;;;;;;;-128.00;-1.00;-1.00;106698;1254;1012538;-67
2023/06/30 06:05:10;;;;;;;9.10;4.10;;;;;;;-128.00;-1.00;-1.00;106674;1253;1013521;-64
2023/06/30 06:07:56;;;;;;;7.30;3.50;;;;;;;-128.00;-1.00;-1.00;106771;1253;1009787;-65
2023/06/30 06:10:45;;;;;;;8.00;3.70;;;;;;;-128.00;-1.00;-1.00;106623;1254;1011393;-68
2023/06/30 06:13:38;;;;;;;8.20;4.00;;;;;;;-128.00;-1.00;-1.00;106571;1253;1012595;-68
2023/06/30 06:16:24;;;;;;;11.20;4.30;;;;;;;-128.00;-1.00;-1.00;106670;1254;1012119;-68
2023/06/30 06:19:11;;;;;;;7.40;3.60;;;;;;;-128.00;-1.00;-1.00;106664;1253;1012755;-67
2023/06/30 06:21:57;;;;;;;7.70;3.60;;;;;;;-128.00;-1.00;-1.00;106485;1254;1009278;-66
2023/06/30 06:24:43;;;;;;;8.20;3.50;;;;;;;-128.00;-1.00;-1.00;106674;1253;1012424;-66
2023/06/30 06:27:35;;;;;;;10.30;4.40;;;;;;;-128.00;-1.00;-1.00;106635;1254;1012991;-68
2023/06/30 06:30:21;;;;;;;8.60;3.80;;;;;;;-128.00;-1.00;-1.00;106664;1253;1012160;-66
2023/06/30 06:33:08;;;;;;;8.00;4.10;;;;;;;-128.00;-1.00;-1.00;106803;1254;1012907;-68
2023/06/30 06:35:55;;;;;;;9.50;4.20;;;;;;;-128.00;-1.00;-1.00;106745;1253;1009906;-65
2023/06/30 06:38:41;;;;;;;9.40;3.70;;;;;;;-128.00;-1.00;-1.00;106593;1254;1011183;-66
2023/06/30 06:41:28;;;;;;;8.70;3.80;;;;;;;-128.00;-1.00;-1.00;106541;1254;1013108;-65
2023/06/30 06:44:14;;;;;;;9.60;4.20;;;;;;;-128.00;-1.00;-1.00;106796;1253;1013075;-69
2023/06/30 06:47:56;;;;;;;9.40;3.70;;;;;;;-128.00;-1.00;-1.00;106815;1253;1012770;-68
2023/06/30 06:50:43;;;;;;;10.80;3.80;;;;;;;-128.00;-1.00;-1.00;106763;1253;1010569;-65
2023/06/30 06:53:34;;;;;;;7.40;3.60;;;;;;;-128.00;-1.00;-1.00;106804;1254;1010138;-68
2023/06/30 06:56:20;;;;;;;10.10;4.30;;;;;;;-128.00;-1.00;-1.00;106853;1253;1013204;-70
2023/06/30 06:59:07;;;;;;;8.30;4.00;;;;;;;-128.00;-1.00;-1.00;106718;1256;1012194;-69
2023/06/30 07:01:54;;;;;;;9.10;4.20;;;;;;;-128.00;-1.00;-1.00;106573;1254;1013249;-68
2023/06/30 07:04:40;;;;;;;8.40;3.70;;;;;;;-128.00;-1.00;-1.00;106706;1253;1009722;-67
2023/06/30 07:07:27;;;;;;;10.00;4.70;;;;;;;-128.00;-1.00;-1.00;106756;1253;1010386;-70
2023/06/30 07:10:15;;;;;;;8.40;4.20;;;;;;;-128.00;-1.00;-1.00;106797;1254;1012635;-71
2023/06/30 07:13:03;;;;;;;11.30;4.40;;;;;;;-128.00;-1.00;-1.00;106650;1254;1012919;-68
2023/06/30 07:15:50;;;;;;;9.80;4.50;;;;;;;-128.00;-1.00;-1.00;106720;1254;1013179;-68
2023/06/30 07:18:36;;;;;;;9.00;3.90;;;;;;;-128.00;-1.00;-1.00;106538;1254;1010159;-68
2023/06/30 07:21:25;;;;;;;10.80;4.60;;;;;;;-128.00;-1.00;-1.00;106801;1253;1010995;-68
2023/06/30 07:24:12;;;;;;;9.40;4.00;;;;;;;-128.00;-1.00;-1.00;106823;1253;1012125;-69
2023/06/30 07:26:58;;;;;;;9.90;4.40;;;;;;;-128.00;-1.00;-1.00;106821;1253;1011697;-68
2023/06/30 07:29:47;;;;;;;8.30;3.70;;;;;;;-128.00;-1.00;-1.00;106550;1253;1012467;-68
2023/06/30 07:32:34;;;;;;;8.40;4.20;;;;;;;-128.00;-1.00;-1.00;106831;1253;1008940;-70
2023/06/30 07:35:22;;;;;;;8.30;4.10;;;;;;;-128.00;-1.00;-1.00;106827;1253;1010806;-69
2023/06/30 07:38:09;;;;;;;9.70;4.70;;;;;;;-128.00;-1.00;-1.00;106692;1253;1012859;-67
2023/06/30 07:40:55;;;;;;;9.20;4.20;;;;;;;-128.00;-1.00;-1.00;106566;1254;1012370;-69
2023/06/30 07:43:44;;;;;;;9.30;4.20;;;;;;;-128.00;-1.00;-1.00;106684;1253;1012309;-68
2023/06/30 07:46:31;;;;;;;11.80;4.10;;;;;;;-128.00;-1.00;-1.00;106364;1254;1009714;-69
2023/06/30 07:49:18;;;;;;;8.80;3.90;;;;;;;-128.00;-1.00;-1.00;106619;1253;1010488;-69
2023/06/30 07:52:04;;;;;;;9.30;4.20;;;;;;;-128.00;-1.00;-1.00;106734;1253;1012980;-68
2023/06/30 07:54:55;;;;;;;9.00;4.30;;;;;;;-128.00;-1.00;-1.00;106526;1254;1012924;-69
2023/06/30 07:57:43;;;;;;;9.50;4.30;;;;;;;-128.00;-1.00;-1.00;106603;1253;1012258;-67
2023/06/30 08:00:30;;;;;;;8.90;4.40;;;;;;;-128.00;-1.00;-1.00;106812;1253;1009517;-69
2023/06/30 08:03:16;;;;;;;9.50;4.00;;;;;;;-128.00;-1.00;-1.00;106612;1253;1010993;-70
2023/06/30 08:06:03;;;;;;;9.80;3.90;;;;;;;-128.00;-1.00;-1.00;106300;1257;1012207;-70
2023/06/30 08:08:51;;;;;;;8.60;4.10;;;;;;;-128.00;-1.00;-1.00;106278;1257;1011492;-69
2023/06/30 08:11:37;;;;;;;8.00;3.70;;;;;;;-128.00;-1.00;-1.00;106355;1257;1012487;-68
2023/06/30 08:14:24;;;;;;;9.40;3.80;;;;;;;-128.00;-1.00;-1.00;106403;1257;1009998;-69
2023/06/30 08:17:10;;;;;;;9.50;3.40;;;;;;;-128.00;-1.00;-1.00;106382;1257;1011099;-71
2023/06/30 08:19:57;;;;;;;7.50;3.40;;;;;;;-128.00;-1.00;-1.00;106372;1257;1012542;-67
2023/06/30 08:22:43;;;;;;;9.50;3.80;;;;;;;-128.00;-1.00;-1.00;106366;1257;1012874;-69
2023/06/30 08:25:32;;;;;;;10.80;4.90;;;;;;;-128.00;-1.00;-1.00;106295;1257;1013025;-70
2023/06/30 08:28:20;;;;;;;11.20;3.70;;;;;;;-128.00;-1.00;-1.00;106184;1257;1232672;-71
2023/06/30 08:31:06;;;;;;;10.90;3.50;;;;;;;-128.00;-1.00;-1.00;106302;1257;1011616;-69
2023/06/30 08:33:52;;;;;;;8.80;3.50;;;;;;;-128.00;-1.00;-1.00;106405;1257;1013825;-71
2023/06/30 08:36:39;;;;;;;11.60;3.90;;;;;;;-128.00;-1.00;-1.00;106528;1253;1012229;-67
2023/06/30 08:39:29;;;;;;;9.00;3.40;;;;;;;-128.00;-1.00;-1.00;106739;1253;1013535;-68
2023/06/30 08:42:22;;;;;;;10.90;3.60;;;;;;;-128.00;-1.00;-1.00;106642;1253;1009745;-68
2023/06/30 08:45:12;;;;;;;8.40;3.60;;;;;;;-128.00;-1.00;-1.00;106842;1253;1011006;-68
2023/06/30 08:48:06;;;;;;;7.00;3.40;;;;;;;-128.00;-1.00;-1.00;106568;1256;1013285;-71
2023/06/30 08:50:53;;;;;;;9.20;3.40;;;;;;;-128.00;-1.00;-1.00;106516;1255;1012909;-67
2023/06/30 08:53:39;;;;;;;8.60;3.60;;;;;;;-128.00;-1.00;-1.00;106471;1255;1012706;-71
2023/06/30 08:56:28;;;;;;;9.20;3.50;;;;;;;-128.00;-1.00;-1.00;106577;1256;1010451;-69
2023/06/30 08:59:15;;;;;;;8.10;3.50;;;;;;;-128.00;-1.00;-1.00;106427;1256;1011192;-69
2023/06/30 09:02:02;;;;;;;9.50;3.50;;;;;;;-128.00;-1.00;-1.00;106570;1256;1013690;-67
2023/06/30 09:04:49;;;;;;;8.60;3.50;;;;;;;-128.00;-1.00;-1.00;106598;1256;1012398;-68
2023/06/30 09:07:45;;;;;;;10.90;3.40;;;;;;;-128.00;-1.00;-1.00;106383;1256;1012519;-68
2023/06/30 09:10:37;;;;;;;9.10;3.60;;;;;;;-128.00;-1.00;-1.00;106643;1256;1010394;-70
2023/06/30 09:13:24;;;;;;;8.70;3.40;;;;;;;-128.00;-1.00;-1.00;106648;1255;1011573;-69
2023/06/30 09:16:15;;;;;;;8.20;3.70;;;;;;;-128.00;-1.00;-1.00;106597;1255;1011998;-70
2023/06/30 09:19:05;;;;;;;8.70;4.00;;;;;;;-128.00;-1.00;-1.00;106547;1256;1012369;-68
2023/06/30 09:21:53;;;;;;;9.20;3.80;;;;;;;-128.00;-1.00;-1.00;106535;1253;1013045;-71
2023/06/30 09:24:39;;;;;;;9.20;3.60;;;;;;;-128.00;-1.00;-1.00;106668;1253;1009475;-71
2023/06/30 09:27:27;;;;;;;8.60;4.30;;;;;;;-128.00;-1.00;-1.00;106743;1253;1010674;-69
2023/06/30 09:30:14;;;;;;;9.70;3.90;;;;;;;-128.00;-1.00;-1.00;106565;1253;1012197;-67
2023/06/30 09:33:02;;;;;;;8.70;3.90;;;;;;;-128.00;-1.00;-1.00;106791;1253;1012467;-69
2023/06/30 09:35:50;;;;;;;8.60;3.90;;;;;;;-128.00;-1.00;-1.00;106765;1253;1013488;-70
2023/06/30 09:38:36;;;;;;;9.50;3.80;;;;;;;-128.00;-1.00;-1.00;106567;1253;1010210;-69
2023/06/30 09:41:26;;;;;;;8.80;3.80;;;;;;;-128.00;-1.00;-1.00;106711;1253;1011224;-68
2023/06/30 09:44:14;;;;;;;8.90;4.20;;;;;;;-128.00;-1.00;-1.00;106662;1253;1012534;-66
2023/06/30 09:47:00;;;;;;;8.60;4.00;;;;;;;-128.00;-1.00;-1.00;106800;1253;1011600;-68
2023/06/30 09:49:47;;;;;;;8.60;4.50;;;;;;;-128.00;-1.00;-1.00;106561;1253;1013017;-69
2023/06/30 09:52:34;;;;;;;9.20;4.40;;;;;;;-128.00;-1.00;-1.00;106728;1253;1011570;-68
2023/06/30 09:55:20;;;;;;;8.80;4.30;;;;;;;-128.00;-1.00;-1.00;106564;1253;1011176;-69
2023/06/30 09:58:11;;;;;;;9.80;4.10;;;;;;;-128.00;-1.00;-1.00;106518;1253;1013581;-69
2023/06/30 10:00:58;;;;;;;8.60;3.90;;;;;;;-128.00;-1.00;-1.00;106604;1253;1012427;-66
2023/06/30 10:03:49;;;;;;;9.00;4.20;;;;;;;-128.00;-1.00;-1.00;106684;1254;1012246;-69
2023/06/30 10:06:38;;;;;;;7.70;3.90;;;;;;;-128.00;-1.00;-1.00;106801;1253;1009974;-70
2023/06/30 10:09:25;;;;;;;8.40;3.50;;;;;;;-128.00;-1.00;-1.00;106468;1253;1011451;-69
2023/06/30 10:12:14;;;;;;;8.60;4.00;;;;;;;-128.00;-1.00;-1.00;106770;1253;1013394;-70
2023/06/30 10:15:02;;;;;;;10.30;4.50;;;;;;;-128.00;-1.00;-1.00;106584;1253;1013180;-69
2023/06/30 10:17:49;;;;;;;9.70;4.20;;;;;;;-128.00;-1.00;-1.00;106707;1253;1013524;-72
2023/06/30 10:20:35;;;;;;;8.60;4.50;;;;;;;-128.00;-1.00;-1.00;106568;1253;1010378;-69
2023/06/30 10:23:35;;;;;;;8.90;4.30;;;;;;;-128.00;-1.00;-1.00;106829;1253;1011092;-67
2023/06/30 10:26:23;;;;;;;9.50;4.90;;;;;;;-128.00;-1.00;-1.00;106392;1257;1012518;-68
2023/06/30 10:29:10;;;;;;;11.40;5.50;;;;;;;-128.00;-1.00;-1.00;106579;1253;1012456;-69
2023/06/30 10:31:58;;;;;;;9.40;5.00;;;;;;;-128.00;-1.00;-1.00;106558;1253;1012918;-67
2023/06/30 10:34:45;;;;;;;9.80;4.90;;;;;;;-128.00;-1.00;-1.00;106639;1253;1009137;-70
2023/06/30 10:37:32;;;;;;;11.30;5.70;;;;;;;-128.00;-1.00;-1.00;106437;1253;1011196;-70
2023/06/30 10:40:24;;;;;;;10.10;5.10;;;;;;;-128.00;-1.00;-1.00;106698;1253;1012365;-70
2023/06/30 10:43:13;;;;;;;9.00;5.60;;;;;;;-128.00;-1.00;-1.00;106707;1253;1011971;-69
2023/06/30 10:46:06;;;;;;;9.20;5.20;;;;;;;-128.00;-1.00;-1.00;106646;1253;1012845;-67
2023/06/30 10:48:56;;;;;;;11.10;6.00;;;;;;;-128.00;-1.00;-1.00;106688;1253;1009581;-68
2023/06/30 10:51:52;;;;;;;9.30;5.30;;;;;;;-128.00;-1.00;-1.00;106556;1253;1010347;-67
2023/06/30 10:54:47;;;;;;;10.70;5.80;;;;;;;-128.00;-1.00;-1.00;106866;1253;1012401;-71
2023/06/30 10:57:37;;;;;;;9.50;5.80;;;;;;;-128.00;-1.00;-1.00;106652;1256;1012132;-72
2023/06/30 11:00:29;;;;;;;9.30;5.10;;;;;;;-128.00;-1.00;-1.00;106530;1253;1012798;-68
2023/06/30 11:03:15;;;;;;;10.80;5.80;;;;;;;-128.00;-1.00;-1.00;106522;1254;1009849;-70
2023/06/30 11:06:21;;;;;;;11.80;6.00;;;;;;;-128.00;-1.00;-1.00;106760;1253;1010270;-69
2023/06/30 11:09:11;;;;;;;9.60;5.50;;;;;;;-128.00;-1.00;-1.00;106645;1253;1011994;-71
2023/06/30 11:12:00;;;;;;;10.70;6.10;;;;;;;-128.00;-1.00;-1.00;106574;1253;1012683;-69
2023/06/30 11:15:01;;;;;;;12.40;6.60;;;;;;;-128.00;-1.00;-1.00;106692;1253;1012582;-70
2023/06/30 11:17:50;;;;;;;11.00;5.50;;;;;;;-128.00;-1.00;-1.00;106702;1253;1009766;-69
2023/06/30 11:20:38;;;;;;;11.30;6.00;;;;;;;-128.00;-1.00;-1.00;106880;1253;1011599;-67
2023/06/30 11:23:32;;;;;;;9.80;5.60;;;;;;;-128.00;-1.00;-1.00;106528;1253;1012677;-66
2023/06/30 11:26:18;;;;;;;11.20;6.20;;;;;;;-128.00;-1.00;-1.00;106537;1253;1012124;-67
2023/06/30 11:29:05;;;;;;;10.60;6.20;;;;;;;-128.00;-1.00;-1.00;106604;1253;1013135;-67
2023/06/30 11:31:51;;;;;;;10.30;5.70;;;;;;;-128.00;-1.00;-1.00;106765;1253;1010103;-68
2023/06/30 11:34:38;;;;;;;11.40;6.40;;;;;;;-128.00;-1.00;-1.00;106539;1253;1010149;-67
2023/06/30 11:37:26;;;;;;;11.70;6.40;;;;;;;-128.00;-1.00;-1.00;106823;1253;1013334;-67
2023/06/30 11:40:12;;;;;;;11.40;6.90;;;;;;;-128.00;-1.00;-1.00;106662;1257;1012645;-69
2023/06/30 11:42:59;;;;;;;11.40;6.60;;;;;;;-128.00;-1.00;-1.00;106816;1253;1012996;-66
2023/06/30 11:45:57;;;;;;;10.30;6.20;;;;;;;-128.00;-1.00;-1.00;106517;1253;1009848;-66
2023/06/30 11:48:49;;;;;;;12.00;6.70;;;;;;;-128.00;-1.00;-1.00;106782;1253;1011030;-67
2023/06/30 11:51:36;;;;;;;10.50;6.30;;;;;;;-128.00;-1.00;-1.00;106704;1253;1014041;-68
2023/06/30 11:54:31;;;;;;;12.40;6.00;;;;;;;-128.00;-1.00;-1.00;106556;1253;1012886;-68
2023/06/30 11:57:17;;;;;;;12.10;6.00;;;;;;;-128.00;-1.00;-1.00;106706;1253;1012388;-67
2023/06/30 12:00:11;;;;;;;10.40;5.90;;;;;;;-128.00;-1.00;-1.00;106342;1256;1009845;-69
2023/06/30 12:03:18;;;;;;;10.20;5.60;;;;;;;-128.00;-1.00;-1.00;106409;1256;1011584;-69
2023/06/30 12:06:05;;;;;;;12.60;6.00;;;;;;;-128.00;-1.00;-1.00;106430;1256;1012968;-69
2023/06/30 12:08:53;;;;;;;10.20;6.10;;;;;;;-128.00;-1.00;-1.00;106350;1256;1011952;-66
2023/06/30 12:11:48;;;;;;;10.70;5.80;;;;;;;-128.00;-1.00;-1.00;106453;1256;1013355;-66
2023/06/30 12:14:41;;;;;;;10.40;6.00;;;;;;;-128.00;-1.00;-1.00;106361;1256;1009666;-66
2023/06/30 12:17:28;;;;;;;10.10;6.40;;;;;;;-128.00;-1.00;-1.00;106410;1256;1010463;-65
2023/06/30 12:20:29;;;;;;;11.10;6.40;;;;;;;-128.00;-1.00;-1.00;106410;1256;1013315;-67
2023/06/30 12:23:27;;;;;;;12.20;6.70;;;;;;;-128.00;-1.00;-1.00;106474;1256;1013310;-64
2023/06/30 12:26:13;;;;;;;10.30;5.90;;;;;;;-128.00;-1.00;-1.00;106419;1256;1012943;-65
2023/06/30 12:29:04;;;;;;;10.20;6.10;;;;;;;-128.00;-1.00;-1.00;106499;1256;1009953;-70
2023/06/30 12:31:51;;;;;;;13.00;7.90;;;;;;;-128.00;-1.00;-1.00;106666;1253;1010943;-66
2023/06/30 12:34:38;;;;;;;14.40;7.60;;;;;;;-128.00;-1.00;-1.00;106607;1253;1012397;-68
2023/06/30 12:37:30;;;;;;;12.90;8.00;;;;;;;-128.00;-1.00;-1.00;106740;1253;1012820;-69
2023/06/30 12:40:16;;;;;;;11.10;6.90;;;;;;;-128.00;-1.00;-1.00;106682;1253;1011965;-68
2023/06/30 12:43:03;;;;;;;11.60;6.70;;;;;;;-128.00;-1.00;-1.00;106757;1253;1010961;-68
2023/06/30 12:45:52;;;;;;;13.70;7.20;;;;;;;-128.00;-1.00;-1.00;106580;1253;1012236;-67
2023/06/30 12:48:38;;;;;;;10.60;6.10;;;;;;;-128.00;-1.00;-1.00;106632;1253;1012714;-65
2023/06/30 12:51:24;;;;;;;15.30;6.70;;;;;;;-128.00;-1.00;-1.00;106645;1253;1012320;-67